BYU2
, Provo
Last Weather Update:12/30/2011 11:00:00 PM
Date
ETo
ETc
Rain
Irrigation
Req
Temp
Max
Temp
Min
Temp
Avg
Avg RH
Avg Wind
Avg Solar
inches
inches
incehs
inches
F
F
F
%
%
watts/m2
11/01/2011 0.02" 0.00" 0.43" -0.43" 50.6° 31.2° 41.2° 77.6% 3.2 MPH 53.1w/m2
11/02/2011 0.06" 0.00" 0.00" 0.00" 44.0° 26.7° 34.4° 71.7% 1.5 MPH 163.4w/m2
11/03/2011 0.05" 0.00" 0.00" 0.00" 58.3° 26.4° 39.3° 56.6% 1.4 MPH 125.4w/m2
11/04/2011 0.09" 0.00" 0.01" -0.01" 60.8° 35.9° 50.0° 39.6% 4.6 MPH 91.4w/m2
11/05/2011 0.03" 0.00" 0.07" -0.07" 37.1° 32.5° 34.1° 70.6% 3.2 MPH 51.7w/m2
11/06/2011 0.05" 0.00" 0.01" -0.01" 44.4° 25.6° 35.0° 72.8% 1.4 MPH 115.9w/m2
11/07/2011 0.03" 0.00" 0.00" 0.00" 43.3° 31.3° 36.7° 80.2% 1.7 MPH 70.1w/m2
11/08/2011 0.04" 0.00" 0.00" 0.00" 41.6° 27.4° 33.4° 73.4% 1.6 MPH 131.0w/m2
11/09/2011 0.04" 0.00" 0.00" 0.00" 45.0° 22.8° 31.7° 72.3% 0.9 MPH 139.2w/m2
11/10/2011 0.05" 0.00" 0.00" 0.00" 55.6° 24.6° 36.4° 59.9% 0.7 MPH 140.8w/m2
11/11/2011 0.05" 0.00" 0.00" 0.00" 54.4° 25.6° 40.0° 46.2% 1.5 MPH 96.5w/m2
11/12/2011 0.04" 0.00" 0.15" -0.15" 50.3° 36.6° 44.4° 62.0% 3.8 MPH 13.1w/m2
11/13/2011 0.03" 0.00" 0.25" -0.25" 52.9° 35.9° 42.3° 77.2% 1.6 MPH 73.7w/m2
11/14/2011 0.06" 0.00" 0.00" 0.00" 56.1° 31.6° 43.0° 56.6% 2.0 MPH 129.6w/m2
11/15/2011 0.04" 0.00" 0.00" 0.00" 47.9° 32.6° 40.9° 54.0% 1.9 MPH 70.8w/m2
11/16/2011 0.05" 0.00" 0.00" 0.00" 47.9° 26.5° 36.0° 56.7% 1.0 MPH 131.2w/m2
11/17/2011 0.05" 0.00" 0.00" 0.00" 56.0° 28.0° 43.2° 45.8% 1.7 MPH 73.3w/m2
11/18/2011 0.07" 0.00" 0.02" -0.02" 58.4° 32.6° 47.1° 51.1% 3.9 MPH 37.9w/m2
11/19/2011 0.03" 0.00" 0.19" -0.19" 38.1° 31.5° 34.4° 81.6% 1.5 MPH 78.0w/m2
11/20/2011 0.02" 0.00" 0.00" 0.00" 48.8° 33.5° 39.3° 81.2% 1.0 MPH 53.9w/m2
11/21/2011 0.02" 0.00" 0.15" -0.15" 46.5° 33.5° 40.0° 91.5% 0.7 MPH 48.5w/m2
11/22/2011 0.05" 0.00" 0.01" -0.01" 55.2° 31.6° 40.7° 75.7% 0.8 MPH 117.9w/m2
11/23/2011 0.04" 0.00" 0.00" 0.00" 58.7° 31.7° 44.2° 59.7% 1.1 MPH 98.4w/m2
11/24/2011 0.03" 0.00" 0.00" 0.00" 58.5° 36.9° 45.3° 54.5% 1.2 MPH 59.4w/m2
11/25/2011 0.05" 0.00" 0.00" 0.00" 51.0° 30.6° 39.8° 62.6% 3.0 MPH 91.4w/m2
11/26/2011 0.04" 0.00" 0.00" 0.00" 41.3° 22.4° 31.5° 54.6% 1.3 MPH 119.1w/m2
11/27/2011 0.04" 0.00" 0.00" 0.00" 50.2° 23.0° 33.8° 60.7% 0.6 MPH 116.1w/m2
11/28/2011 0.03" 0.00" 0.00" 0.00" 47.9° 27.5° 37.1° 67.4% 1.3 MPH 75.3w/m2
11/29/2011 0.04" 0.00" 0.00" 0.00" 51.6° 27.7° 38.0° 70.2% 1.1 MPH 110.8w/m2
11/30/2011 0.04" 0.00" 0.00" 0.00" 48.2° 30.2° 37.6° 73.0% 2.7 MPH 96.6w/m2
Totals: 1.27" 0.00" 1.29" -1.29" 60.8° 22.4° 39.0° 65.2% 1.8 MPH 92.4w/m2